world map with TAR marked

TAR - Airport

This information may not be accurate or current and is not valid for navigation or flight planning. No warranty of fitness for any purpose is made or implied.

flag of Apuliaflag of Italy

Donate via PayPal

Additional information is available on the NEW Great Circle Mapper

Location
City:  Taranto, Apulia, Italy
Near (Alt.):Grottaglie
Name:Taranto-Grottaglie Airport (Marcello Arlotta Airport)
ICAO / IATA:LIBG / TAR

Details
Type:Airport (Aerodrome, Airfield)
Use:Public/Civil, Military
Latitude:40°30'39"N (40.510833)
Longitude:17°24'18"E (17.405000)
Elevation:215 ft (66 m)
Runways:1
Longest:10499 × 148 ft (3200 × 45 m)

Time
Timezone:UTC+1 (DST+4)
Local Time:

Weather
METAR:LIBG  041350Z 10009G28KT 9999 FEW010 SCT020 12/09 Q1012

Related Locations
Nearby:
Farthest:CHT: 11694 mi / 18819 km
Waitangi [Tuuta], CIT, NZ

Find:

   beyond  
but within

Other Information
Maps:
Links:
Sources:

  


 


Great Circle Mapper   Great Circle Mapper
Great Circle Mapper FAQ   Great Circle Mapper FAQ
  Karl's Home Page
KLSē   KLSē Home
   GC on Facebook
Airlines of the World   Airlines of the World
Donate via PayPal


Copyright © 2004-2020, Karl L. Swartz. All rights reserved.
All trademarks mentioned herein belong to their respective owners.

Please see credits for attribution and copyright information.

Karl Swartz <karl@kls2.com>
  Powered by FreeBSD
Valid HTML 4.01!
Labeled with ICRA
hCard Microformat
Geo Microformat